createdAt,value
2019-04-29T00:01:07.425Z,3.50
2019-04-29T00:03:36.202Z,3.00
2019-04-29T00:06:05.300Z,3.53
2019-04-29T00:08:34.040Z,4.17
2019-04-29T00:11:02.901Z,3.43
2019-04-29T00:13:31.629Z,3.43
2019-04-29T00:16:11.128Z,3.10
2019-04-29T00:18:41.720Z,3.93
2019-04-29T00:21:10.513Z,4.03
2019-04-29T00:23:39.360Z,7.33
2019-04-29T00:26:08.100Z,4.10
2019-04-29T00:28:36.859Z,3.37
2019-04-29T00:31:05.827Z,3.90
2019-04-29T00:33:34.539Z,2.87
2019-04-29T00:36:03.306Z,3.50
2019-04-29T00:38:42.594Z,3.73
2019-04-29T00:41:29.471Z,4.30
2019-04-29T00:44:02.856Z,3.73
2019-04-29T00:46:32.801Z,3.50
2019-04-29T00:49:01.541Z,3.00
2019-04-29T00:51:30.403Z,3.00
2019-04-29T00:54:00.766Z,3.67
2019-04-29T00:56:29.507Z,3.10
2019-04-29T00:58:58.257Z,3.90
2019-04-29T01:01:27.177Z,4.37
2019-04-29T01:03:55.881Z,3.20
2019-04-29T01:06:24.645Z,3.50
2019-04-29T01:08:53.374Z,4.27
2019-04-29T01:11:22.468Z,3.60
2019-04-29T01:13:51.231Z,4.10
2019-04-29T01:16:20.022Z,4.60
2019-04-29T01:18:48.753Z,3.93
2019-04-29T01:21:17.550Z,4.97
2019-04-29T01:23:46.375Z,3.83
2019-04-29T01:26:32.120Z,3.60
2019-04-29T01:29:02.498Z,3.60
2019-04-29T01:31:32.309Z,4.10
2019-04-29T01:34:02.708Z,3.17
2019-04-29T01:36:33.069Z,3.17
2019-04-29T01:39:02.595Z,3.30
2019-04-29T01:41:35.710Z,3.63
2019-04-29T01:44:06.329Z,3.20
2019-04-29T01:46:35.147Z,3.03
2019-04-29T01:49:03.901Z,3.10
2019-04-29T01:51:32.644Z,3.30
2019-04-29T01:54:01.403Z,2.77
2019-04-29T01:56:30.226Z,2.83
2019-04-29T01:58:59.039Z,2.47
2019-04-29T02:01:27.872Z,3.73
2019-04-29T02:03:56.640Z,3.30
2019-04-29T02:06:25.442Z,2.87
2019-04-29T02:08:55.354Z,2.90
2019-04-29T02:11:24.130Z,2.90
2019-04-29T02:13:52.969Z,3.53
2019-04-29T02:16:21.880Z,2.60
2019-04-29T02:18:50.701Z,3.10
2019-04-29T02:21:19.530Z,3.50
2019-04-29T02:24:08.201Z,4.30
2019-04-29T02:26:37.012Z,3.20
2019-04-29T02:29:05.738Z,3.93
2019-04-29T02:31:42.165Z,3.00
2019-04-29T02:34:10.904Z,2.33
2019-04-29T02:36:39.651Z,2.60
2019-04-29T02:39:30.572Z,3.20
2019-04-29T02:42:17.694Z,3.00
2019-04-29T02:44:47.126Z,3.60
2019-04-29T02:47:15.920Z,3.23
2019-04-29T02:49:44.735Z,3.00
2019-04-29T02:52:13.427Z,3.80
2019-04-29T02:54:42.524Z,2.97
2019-04-29T02:57:12.954Z,3.30
2019-04-29T02:59:49.119Z,4.03
2019-04-29T03:02:36.067Z,2.10
2019-04-29T03:05:16.165Z,2.87
2019-04-29T03:07:45.155Z,3.07
2019-04-29T03:10:14.191Z,2.77
2019-04-29T03:12:43.213Z,3.30
2019-04-29T03:15:12.664Z,3.47
2019-04-29T03:17:41.704Z,3.17
2019-04-29T03:20:12.081Z,3.57
2019-04-29T03:22:42.469Z,3.00
2019-04-29T03:25:11.405Z,2.60
2019-04-29T03:27:40.176Z,2.43
2019-04-29T03:30:09.191Z,3.40
2019-04-29T03:32:37.958Z,3.53
2019-04-29T03:35:07.507Z,3.50
2019-04-29T03:37:36.218Z,3.77
2019-04-29T03:40:06.409Z,3.07
2019-04-29T03:42:35.119Z,3.47
2019-04-29T03:45:05.324Z,3.30
2019-04-29T03:47:34.149Z,3.83
2019-04-29T03:50:02.863Z,4.00
2019-04-29T03:52:31.597Z,3.90
2019-04-29T03:55:00.477Z,3.60
2019-04-29T03:57:30.839Z,4.10
2019-04-29T03:59:59.592Z,3.73
2019-04-29T04:02:30.055Z,3.10
2019-04-29T04:05:06.571Z,3.20
2019-04-29T04:07:46.057Z,4.27
2019-04-29T04:10:15.192Z,4.63
2019-04-29T04:12:43.924Z,3.07
2019-04-29T04:15:12.817Z,4.30
2019-04-29T04:17:52.491Z,4.00
2019-04-29T04:20:21.693Z,4.10
2019-04-29T04:22:50.471Z,4.40
2019-04-29T04:25:19.289Z,3.53
2019-04-29T04:27:48.537Z,4.97
2019-04-29T04:30:18.190Z,3.60
2019-04-29T04:32:46.892Z,4.10
2019-04-29T04:35:15.630Z,3.70
2019-04-29T04:37:44.409Z,3.67
2019-04-29T04:40:19.369Z,4.30
2019-04-29T04:42:48.118Z,4.57
2019-04-29T04:45:17.008Z,3.17
2019-04-29T04:47:45.768Z,3.30
2019-04-29T04:50:15.945Z,4.37
2019-04-29T04:52:44.666Z,3.10
2019-04-29T04:55:13.788Z,4.17
2019-04-29T04:57:42.533Z,4.50
2019-04-29T05:00:22.900Z,4.43
2019-04-29T05:02:51.670Z,4.47
2019-04-29T05:05:20.405Z,3.53
2019-04-29T05:07:49.121Z,4.50
2019-04-29T05:10:17.877Z,4.03
2019-04-29T05:12:46.628Z,4.10
2019-04-29T05:15:16.041Z,4.30
2019-04-29T05:17:44.878Z,4.10
2019-04-29T05:20:13.897Z,3.90
2019-04-29T05:22:44.255Z,3.33
2019-04-29T05:25:13.087Z,4.07
2019-04-29T05:27:41.809Z,3.47
2019-04-29T05:30:10.534Z,4.20
2019-04-29T05:32:39.306Z,4.27
2019-04-29T05:35:20.751Z,3.93
2019-04-29T05:37:59.839Z,3.70
2019-04-29T05:40:45.249Z,3.97
2019-04-29T05:43:15.656Z,2.80
2019-04-29T05:46:02.750Z,4.07
2019-04-29T05:48:32.067Z,2.97
2019-04-29T05:51:06.275Z,4.63
2019-04-29T05:53:54.699Z,3.77
2019-04-29T05:56:19.011Z,3.33
2019-04-29T05:58:47.744Z,3.27
2019-04-29T06:01:18.138Z,3.87
2019-04-29T06:03:47.040Z,3.37
2019-04-29T06:06:15.772Z,3.37
2019-04-29T06:08:44.522Z,2.80
2019-04-29T06:11:13.278Z,2.63
2019-04-29T06:13:41.993Z,3.37
2019-04-29T06:16:10.754Z,2.87
2019-04-29T06:18:41.078Z,3.10
2019-04-29T06:21:09.996Z,2.67
2019-04-29T06:23:38.760Z,3.33
2019-04-29T06:26:07.499Z,2.87
2019-04-29T06:28:36.249Z,3.57
2019-04-29T06:31:05.064Z,3.67
2019-04-29T06:33:33.792Z,3.20
2019-04-29T06:36:02.600Z,3.23
2019-04-29T06:38:31.336Z,3.50
2019-04-29T06:41:00.108Z,3.67
2019-04-29T06:43:30.636Z,4.17
2019-04-29T06:45:59.362Z,3.37
2019-04-29T06:48:28.085Z,2.93
2019-04-29T06:50:56.871Z,2.97
2019-04-29T06:53:25.589Z,3.13
2019-04-29T06:55:54.331Z,3.73
2019-04-29T06:58:23.077Z,3.00
2019-04-29T07:00:55.868Z,3.87
2019-04-29T07:03:25.441Z,2.53
2019-04-29T07:05:52.652Z,4.37
2019-04-29T07:08:21.400Z,3.37
2019-04-29T07:10:50.120Z,4.53
2019-04-29T07:13:22.919Z,3.90
2019-04-29T07:15:49.424Z,2.90
2019-04-29T07:18:18.220Z,3.50
2019-04-29T07:20:46.996Z,2.70
2019-04-29T07:23:15.787Z,3.20
2019-04-29T07:25:44.522Z,3.27
2019-04-29T07:28:13.820Z,3.40
2019-04-29T07:31:00.384Z,3.93
2019-04-29T07:33:22.045Z,3.57
2019-04-29T07:35:47.896Z,2.67
2019-04-29T07:38:14.850Z,3.93
2019-04-29T07:40:44.652Z,3.87
2019-04-29T07:43:13.555Z,3.53
2019-04-29T07:46:03.739Z,3.20
2019-04-29T07:48:30.859Z,3.37
2019-04-29T07:51:04.208Z,3.23
2019-04-29T07:53:37.396Z,3.27
2019-04-29T07:56:01.734Z,3.40
2019-04-29T07:58:31.346Z,3.20
2019-04-29T08:01:00.093Z,4.60
2019-04-29T08:03:29.051Z,3.83
2019-04-29T08:05:58.778Z,3.03
2019-04-29T08:08:29.924Z,3.20
2019-04-29T08:10:58.832Z,4.17
2019-04-29T08:13:28.396Z,3.30
2019-04-29T08:15:57.141Z,2.90
2019-04-29T08:18:25.940Z,2.87
2019-04-29T08:20:54.700Z,3.33
2019-04-29T08:23:23.453Z,3.10
2019-04-29T08:25:52.188Z,3.10
2019-04-29T08:28:20.971Z,3.37
2019-04-29T08:30:49.692Z,2.63
2019-04-29T08:33:18.409Z,2.93
2019-04-29T08:35:47.259Z,3.70
2019-04-29T08:38:15.990Z,2.50
2019-04-29T08:40:45.367Z,3.07
2019-04-29T08:43:28.954Z,2.97
2019-04-29T08:46:07.844Z,2.57
2019-04-29T08:48:36.670Z,3.30
2019-04-29T08:51:05.560Z,3.63
2019-04-29T08:53:34.310Z,4.60
2019-04-29T08:56:05.682Z,3.07
2019-04-29T08:58:33.556Z,2.87
2019-04-29T09:01:02.371Z,3.13
2019-04-29T09:03:40.149Z,2.50
2019-04-29T09:06:05.523Z,2.60
2019-04-29T09:08:32.925Z,2.60
2019-04-29T09:11:02.391Z,3.10
2019-04-29T09:13:31.225Z,2.50
2019-04-29T09:16:00.098Z,2.50
2019-04-29T09:18:28.885Z,2.67
2019-04-29T09:20:57.727Z,2.53
2019-04-29T09:23:30.994Z,2.70
2019-04-29T09:26:10.745Z,2.17
2019-04-29T09:28:39.481Z,3.13
2019-04-29T09:31:10.094Z,2.40
2019-04-29T09:33:38.862Z,2.63
2019-04-29T09:36:09.592Z,3.07
2019-04-29T09:38:38.465Z,3.10
2019-04-29T09:41:08.994Z,2.63
2019-04-29T09:43:42.139Z,4.10
2019-04-29T09:46:18.726Z,2.60
2019-04-29T09:48:47.683Z,2.90
2019-04-29T09:51:18.127Z,3.03
2019-04-29T09:53:46.970Z,3.20
2019-04-29T09:56:15.799Z,3.10
2019-04-29T09:58:44.572Z,2.70
2019-04-29T10:01:18.622Z,2.67
2019-04-29T10:04:03.566Z,3.73
2019-04-29T10:06:34.030Z,2.27
2019-04-29T10:09:02.868Z,2.87
2019-04-29T10:11:31.589Z,2.50
2019-04-29T10:14:00.366Z,2.90
2019-04-29T10:16:45.767Z,3.00
2019-04-29T10:19:21.950Z,2.40
2019-04-29T10:21:52.246Z,3.10
2019-04-29T10:24:21.090Z,2.97
2019-04-29T10:26:49.851Z,2.63
2019-04-29T10:29:20.372Z,3.67
2019-04-29T10:31:49.326Z,2.77
2019-04-29T10:34:18.603Z,3.00
2019-04-29T10:36:47.296Z,2.83
2019-04-29T10:39:22.695Z,3.50
2019-04-29T10:41:51.454Z,2.90
2019-04-29T10:44:40.163Z,2.70
2019-04-29T10:47:25.244Z,2.70
2019-04-29T10:49:58.356Z,2.87
2019-04-29T10:52:27.174Z,3.40
2019-04-29T10:54:56.695Z,3.10
2019-04-29T10:57:29.286Z,2.73
2019-04-29T11:00:01.001Z,3.17
2019-04-29T11:02:37.117Z,2.60
2019-04-29T11:05:29.338Z,3.17
2019-04-29T11:08:02.540Z,3.57
2019-04-29T11:10:33.232Z,2.70
2019-04-29T11:13:02.036Z,3.27
2019-04-29T11:15:32.910Z,3.57
2019-04-29T11:18:03.584Z,2.57
2019-04-29T11:20:32.894Z,3.33
2019-04-29T11:23:03.322Z,2.73
2019-04-29T11:25:42.842Z,3.53
2019-04-29T11:28:11.976Z,3.47
2019-04-29T11:30:42.124Z,3.77
2019-04-29T11:33:18.061Z,3.30
2019-04-29T11:35:53.966Z,2.70
2019-04-29T11:38:23.013Z,2.80
2019-04-29T11:40:52.371Z,2.70
2019-04-29T11:43:21.798Z,3.40
2019-04-29T11:45:50.910Z,2.70
2019-04-29T11:48:19.648Z,2.47
2019-04-29T11:50:58.894Z,2.60
2019-04-29T11:53:27.717Z,3.03
2019-04-29T11:55:57.386Z,2.93
2019-04-29T11:58:28.579Z,3.00
2019-04-29T12:00:59.160Z,2.87
2019-04-29T12:03:45.944Z,3.20
2019-04-29T12:06:16.249Z,3.07
2019-04-29T12:08:48.179Z,2.63
2019-04-29T12:11:17.641Z,2.87
2019-04-29T12:13:51.148Z,3.33
2019-04-29T12:16:27.444Z,2.93
2019-04-29T12:19:06.897Z,3.17
2019-04-29T12:21:37.272Z,2.87
2019-04-29T12:24:07.384Z,3.83
2019-04-29T12:26:42.920Z,2.70
2019-04-29T12:29:06.626Z,3.57
2019-04-29T12:31:52.112Z,3.33
2019-04-29T12:34:22.618Z,2.97
2019-04-29T12:36:55.931Z,2.30
2019-04-29T12:39:44.723Z,2.90
2019-04-29T12:42:17.842Z,2.67
2019-04-29T12:44:51.292Z,3.47
2019-04-29T12:47:27.319Z,3.07
2019-04-29T12:49:56.197Z,3.13
2019-04-29T12:52:25.613Z,2.63
2019-04-29T12:54:54.348Z,2.80
2019-04-29T12:57:23.568Z,2.90
2019-04-29T12:59:54.660Z,3.47
2019-04-29T13:02:28.417Z,3.40
2019-04-29T13:04:59.011Z,3.07
2019-04-29T13:07:29.488Z,2.47
2019-04-29T13:10:07.014Z,2.60
2019-04-29T13:12:33.650Z,3.30
2019-04-29T13:15:07.921Z,3.00
2019-04-29T13:17:41.872Z,3.00
2019-04-29T13:20:13.144Z,2.93
2019-04-29T13:22:41.943Z,2.13
2019-04-29T13:25:10.998Z,2.73
2019-04-29T13:27:41.216Z,2.67
2019-04-29T13:30:16.101Z,2.73
2019-04-29T13:32:42.663Z,3.07
2019-04-29T13:35:12.741Z,2.70
2019-04-29T13:37:41.721Z,3.27
2019-04-29T13:40:12.201Z,2.70
2019-04-29T13:42:48.614Z,3.13
2019-04-29T13:45:42.798Z,1.87
2019-04-29T13:47:50.335Z,3.00
2019-04-29T13:50:38.690Z,2.27
2019-04-29T13:52:56.580Z,2.83
2019-04-29T13:55:47.367Z,2.17
2019-04-29T13:57:55.776Z,2.47
2019-04-29T14:00:26.404Z,2.50
2019-04-29T14:03:02.584Z,2.53
2019-04-29T14:05:32.507Z,2.67
2019-04-29T14:08:03.951Z,2.57
2019-04-29T14:10:32.902Z,2.80
2019-04-29T14:13:10.478Z,2.67
2019-04-29T14:15:33.873Z,3.20
2019-04-29T14:18:02.619Z,2.97
2019-04-29T14:20:31.369Z,2.70
2019-04-29T14:23:00.094Z,2.27
2019-04-29T14:25:28.834Z,2.70
2019-04-29T14:27:57.614Z,2.30
2019-04-29T14:30:37.948Z,2.70
2019-04-29T14:33:01.717Z,2.50
2019-04-29T14:35:43.725Z,2.20
2019-04-29T14:38:13.340Z,2.37
2019-04-29T14:40:42.828Z,2.27
2019-04-29T14:43:32.138Z,2.70
2019-04-29T14:46:19.402Z,2.63
2019-04-29T14:48:49.811Z,2.67
2019-04-29T14:51:18.562Z,2.10
2019-04-29T14:53:56.247Z,2.37
2019-04-29T14:56:17.702Z,2.20
2019-04-29T14:58:46.521Z,2.67
2019-04-29T15:01:23.334Z,2.90
2019-04-29T15:03:58.105Z,2.50
2019-04-29T15:06:28.924Z,2.83
2019-04-29T15:08:57.299Z,2.70
2019-04-29T15:11:31.876Z,2.30
2019-04-29T15:14:22.940Z,2.60
2019-04-29T15:16:48.564Z,2.53
2019-04-29T15:19:35.452Z,2.30
2019-04-29T15:22:05.862Z,2.40
2019-04-29T15:24:34.711Z,2.63
2019-04-29T15:27:03.462Z,2.73
2019-04-29T15:29:33.557Z,2.27
2019-04-29T15:32:03.218Z,2.47
2019-04-29T15:34:31.974Z,2.40
2019-04-29T15:37:00.754Z,2.73
2019-04-29T15:39:29.632Z,3.13
2019-04-29T15:42:01.966Z,2.40
2019-04-29T15:44:29.037Z,2.57
2019-04-29T15:46:57.736Z,2.60
2019-04-29T15:49:26.955Z,3.07
2019-04-29T15:51:55.708Z,2.13
2019-04-29T15:54:26.170Z,2.40
2019-04-29T15:56:54.927Z,2.50
2019-04-29T15:59:23.797Z,3.03
2019-04-29T16:01:52.637Z,2.30
2019-04-29T16:04:32.445Z,1.97
2019-04-29T16:07:17.108Z,2.33
2019-04-29T16:09:58.550Z,2.63
2019-04-29T16:12:31.890Z,2.60
2019-04-29T16:15:00.707Z,3.10
2019-04-29T16:17:31.934Z,2.13
2019-04-29T16:19:59.944Z,2.90
2019-04-29T16:22:28.681Z,2.17
2019-04-29T16:24:59.384Z,2.40
2019-04-29T16:27:27.899Z,2.17
2019-04-29T16:29:56.729Z,2.57
2019-04-29T16:32:30.111Z,2.13
2019-04-29T16:34:59.009Z,2.43
2019-04-29T16:37:31.920Z,2.20
2019-04-29T16:39:59.764Z,2.27
2019-04-29T16:42:30.393Z,1.87
2019-04-29T16:44:59.153Z,1.90
2019-04-29T16:47:28.054Z,1.87
2019-04-29T16:49:57.610Z,2.43
2019-04-29T16:52:27.326Z,2.13
2019-04-29T16:54:59.111Z,2.47
2019-04-29T16:57:26.564Z,1.93
2019-04-29T16:59:55.333Z,2.73
2019-04-29T17:02:24.735Z,2.47
2019-04-29T17:04:53.545Z,2.73
2019-04-29T17:07:22.389Z,2.23
2019-04-29T17:09:52.768Z,2.90
2019-04-29T17:12:21.532Z,2.57
2019-04-29T17:15:04.113Z,2.23
2019-04-29T17:19:52.798Z,2.37
2019-04-29T17:22:27.177Z,2.93
2019-04-29T17:24:52.291Z,2.03
2019-04-29T17:27:42.181Z,2.73
2019-04-29T17:30:20.599Z,2.70
2019-04-29T17:32:57.439Z,2.50
2019-04-29T17:35:16.118Z,1.83
2019-04-29T17:35:28.472Z,2.30
2019-04-29T17:37:57.216Z,2.37
2019-04-29T17:40:26.572Z,2.50
2019-04-29T17:43:00.851Z,2.57
2019-04-29T17:45:31.048Z,2.30
2019-04-29T17:48:01.145Z,2.17
2019-04-29T17:50:31.631Z,2.47
2019-04-29T17:53:00.583Z,2.13
2019-04-29T17:55:45.946Z,2.73
2019-04-29T17:58:19.429Z,2.73
2019-04-29T18:01:05.330Z,2.50
2019-04-29T18:03:48.041Z,2.87
2019-04-29T18:06:24.456Z,2.20
2019-04-29T18:09:06.836Z,2.07
2019-04-29T18:11:49.663Z,2.47
2019-04-29T18:14:06.668Z,2.50
2019-04-29T18:16:39.506Z,1.70
2019-04-29T18:19:17.327Z,1.70
2019-04-29T18:22:03.593Z,2.10
2019-04-29T18:24:37.366Z,1.90
2019-04-29T18:27:11.580Z,3.43
2019-04-29T18:29:41.803Z,4.47
2019-04-29T18:32:10.861Z,2.17
2019-04-29T18:34:39.616Z,2.40
2019-04-29T18:37:08.405Z,2.30
2019-04-29T18:39:37.121Z,2.00
2019-04-29T18:42:06.909Z,3.13
2019-04-29T18:44:35.902Z,2.07
2019-04-29T18:47:05.648Z,2.40
2019-04-29T18:49:34.552Z,3.20
2019-04-29T18:52:05.627Z,1.93
2019-04-29T18:54:35.612Z,2.70
2019-04-29T18:57:05.837Z,2.00
2019-04-29T18:59:36.658Z,2.00
2019-04-29T19:02:09.159Z,2.57
2019-04-29T19:04:40.458Z,1.87
2019-04-29T19:07:09.219Z,2.30
2019-04-29T19:09:39.540Z,4.37
2019-04-29T19:12:08.325Z,4.97
2019-04-29T19:14:37.118Z,3.30
2019-04-29T19:17:05.949Z,2.40
2019-04-29T19:19:35.873Z,2.33
2019-04-29T19:22:09.191Z,2.10
2019-04-29T19:24:36.280Z,2.43
2019-04-29T19:27:09.636Z,2.27
2019-04-29T19:29:38.856Z,1.90
2019-04-29T19:32:07.227Z,2.20
2019-04-29T19:34:42.504Z,2.70
2019-04-29T19:37:06.385Z,2.60
2019-04-29T19:39:35.164Z,3.00
2019-04-29T19:42:05.649Z,2.03
2019-04-29T19:44:36.700Z,2.43
2019-04-29T19:47:04.940Z,3.50
2019-04-29T19:49:35.785Z,1.77
2019-04-29T19:52:04.252Z,1.90
2019-04-29T19:54:32.973Z,1.87
2019-04-29T19:57:06.145Z,2.43
2019-04-29T19:59:32.556Z,2.33
2019-04-29T20:02:05.488Z,2.30
2019-04-29T20:04:37.391Z,2.30
2019-04-29T20:07:10.047Z,2.50
2019-04-29T20:09:38.148Z,1.80
2019-04-29T20:12:12.857Z,2.67
2019-04-29T20:14:38.007Z,2.17
2019-04-29T20:17:20.964Z,2.17
2019-04-29T20:20:06.871Z,2.10
2019-04-29T20:22:37.454Z,2.30
2019-04-29T20:25:07.504Z,2.37
2019-04-29T20:27:37.730Z,1.80
2019-04-29T20:30:15.970Z,1.80
2019-04-29T20:32:38.179Z,1.77
2019-04-29T20:35:09.042Z,2.70
2019-04-29T20:37:38.057Z,1.70
2019-04-29T20:40:07.671Z,1.93
2019-04-29T20:42:40.337Z,1.90
2019-04-29T20:45:09.395Z,1.70
2019-04-29T20:47:41.888Z,1.90
2019-04-29T20:50:13.921Z,2.37
2019-04-29T20:52:52.164Z,2.23
2019-04-29T20:55:21.309Z,2.63
2019-04-29T20:57:52.297Z,2.50
2019-04-29T21:00:24.766Z,1.97
2019-04-29T21:02:51.447Z,2.13
2019-04-29T21:05:24.414Z,1.67
2019-04-29T21:08:02.369Z,2.03
2019-04-29T21:10:24.376Z,1.60
2019-04-29T21:13:00.212Z,2.13
2019-04-29T21:15:59.526Z,2.10
2019-04-29T21:18:28.478Z,2.40
2019-04-29T21:20:59.564Z,1.77
2019-04-29T21:23:31.563Z,2.13
2019-04-29T21:26:00.585Z,2.23
2019-04-29T21:28:31.574Z,1.63
2019-04-29T21:31:00.859Z,2.17
2019-04-29T21:33:31.145Z,2.13
2019-04-29T21:36:10.682Z,2.10
2019-04-29T21:38:48.433Z,1.50
2019-04-29T21:41:21.919Z,1.80
2019-04-29T21:43:53.476Z,2.20
2019-04-29T21:46:29.121Z,2.03
2019-04-29T21:48:55.702Z,2.00
2019-04-29T21:51:26.395Z,2.13
2019-04-29T21:53:56.018Z,1.87
2019-04-29T21:56:25.824Z,2.20
2019-04-29T21:58:54.610Z,1.93
2019-04-29T22:01:25.050Z,2.57
2019-04-29T22:03:57.709Z,1.77
2019-04-29T22:06:24.735Z,1.50
2019-04-29T22:09:01.142Z,2.27
2019-04-29T22:11:25.716Z,1.53
2019-04-29T22:13:55.527Z,1.97
2019-04-29T22:16:25.121Z,1.60
2019-04-29T22:18:55.367Z,1.50
2019-04-29T22:21:25.914Z,1.87
2019-04-29T22:23:55.279Z,2.10
2019-04-29T22:26:26.804Z,1.60
2019-04-29T22:29:01.798Z,2.37
2019-04-29T22:31:26.859Z,2.30
2019-04-29T22:33:57.384Z,1.93
2019-04-29T22:36:25.957Z,2.00
2019-04-29T22:38:55.813Z,2.03
2019-04-29T22:41:35.230Z,1.93
2019-04-29T22:44:05.595Z,2.40
2019-04-29T22:46:35.678Z,1.97
2019-04-29T22:49:05.845Z,3.17
2019-04-29T22:51:35.550Z,2.33
2019-04-29T22:54:04.750Z,2.10
2019-04-29T22:56:33.535Z,2.17
2019-04-29T22:59:02.282Z,2.43
2019-04-29T23:01:31.087Z,2.37
2019-04-29T23:03:59.934Z,2.63
2019-04-29T23:06:28.699Z,2.70
2019-04-29T23:08:57.430Z,2.47
2019-04-29T23:11:26.341Z,2.63
2019-04-29T23:13:55.438Z,3.20
2019-04-29T23:16:24.297Z,2.93
2019-04-29T23:18:55.137Z,2.43
2019-04-29T23:21:42.865Z,2.70
2019-04-29T23:24:26.738Z,2.90
2019-04-29T23:26:55.488Z,2.70
2019-04-29T23:29:25.477Z,3.00
2019-04-29T23:31:55.370Z,3.03
2019-04-29T23:34:25.835Z,2.10
2019-04-29T23:36:54.746Z,3.07
2019-04-29T23:39:24.886Z,3.03
2019-04-29T23:41:55.350Z,2.67
2019-04-29T23:44:24.380Z,2.83
2019-04-29T23:46:53.135Z,3.17
2019-04-29T23:49:21.863Z,3.53
2019-04-29T23:51:50.596Z,3.00
2019-04-29T23:54:19.378Z,2.87
2019-04-29T23:57:02.015Z,3.33
2019-04-29T23:59:48.857Z,3.77
